Time,TemperatureF,DewpointF,PressureIn,WindDirection,WindDirectionDegrees,WindSpeedMPH,WindSpeedGustMPH,Humidity,HourlyPrecipIn,Conditions,Clouds,dailyrainin,SoftwareType,DateUTC
2013-03-24 00:00:00,73.2,69.8,29.76,WSW,253,6.0,7.0,89,0.00,,---,0.17,VWS V14.01,2013-03-24 04:00:00,
2013-03-24 00:03:00,72.8,70.0,29.79,West,264,0.0,0.0,91,0.00,,---,0.17,VWS V14.01,2013-03-24 04:03:00,
2013-03-24 00:08:00,72.8,69.7,29.79,West,268,0.0,0.0,90,0.00,,---,0.17,VWS V14.01,2013-03-24 04:08:00,
2013-03-24 00:13:00,72.8,69.7,29.79,West,265,0.0,0.0,90,0.00,,---,0.17,VWS V14.01,2013-03-24 04:13:00,
2013-03-24 00:18:00,72.8,69.7,29.78,West,265,0.0,0.0,90,0.00,,---,0.17,VWS V14.01,2013-03-24 04:18:00,
2013-03-24 00:23:00,73.0,69.9,29.78,West,268,0.0,0.0,90,0.00,,---,0.17,VWS V14.01,2013-03-24 04:23:00,
2013-03-24 00:28:00,72.8,69.7,29.78,West,270,0.0,0.0,90,0.00,,---,0.17,VWS V14.01,2013-03-24 04:28:00,
2013-03-24 00:30:00,73.2,69.8,29.76,WSW,254,6.0,8.0,89,0.00,,---,0.00,VWS V14.01,2013-03-24 04:30:00,
2013-03-24 00:33:00,72.8,69.7,29.78,West,267,0.0,0.0,90,0.00,,---,0.17,VWS V14.01,2013-03-24 04:33:00,
2013-03-24 00:38:00,72.8,70.0,29.78,West,268,0.0,0.0,91,0.00,,---,0.17,VWS V14.01,2013-03-24 04:38:00,
2013-03-24 00:43:00,72.8,70.0,29.78,West,265,2.0,6.0,91,0.00,,---,0.17,VWS V14.01,2013-03-24 04:43:00,
2013-03-24 00:48:00,73.0,69.9,29.77,WSW,253,2.0,7.0,90,0.00,,---,0.17,VWS V14.01,2013-03-24 04:48:00,
2013-03-24 00:53:00,73.2,69.8,29.77,WSW,251,2.0,7.0,89,0.00,,---,0.17,VWS V14.01,2013-03-24 04:53:00,
2013-03-24 00:58:00,73.2,69.8,29.77,West,260,2.0,7.0,89,0.00,,---,0.17,VWS V14.01,2013-03-24 04:58:00,
2013-03-24 01:00:00,73.0,69.6,29.75,WSW,248,0.0,10.0,89,0.00,,---,0.00,VWS V14.01,2013-03-24 05:00:00,
2013-03-24 01:03:00,73.2,69.8,29.76,WSW,256,4.0,8.0,89,0.00,,---,0.00,VWS V14.01,2013-03-24 05:03:00,
2013-03-24 01:08:00,73.2,69.8,29.76,WSW,251,2.0,8.0,89,0.00,,---,0.00,VWS V14.01,2013-03-24 05:08:00,
2013-03-24 01:13:00,73.2,69.8,29.76,WSW,256,0.0,8.0,89,0.00,,---,0.00,VWS V14.01,2013-03-24 05:13:00,
2013-03-24 01:18:00,73.0,69.6,29.76,WSW,257,0.0,8.0,89,0.00,,---,0.00,VWS V14.01,2013-03-24 05:18:00,
2013-03-24 01:23:00,73.0,69.6,29.76,WSW,256,0.0,8.0,89,0.00,,---,0.00,VWS V14.01,2013-03-24 05:23:00,
2013-03-24 01:28:00,73.0,69.6,29.76,WSW,256,0.0,8.0,89,0.00,,---,0.00,VWS V14.01,2013-03-24 05:28:00,
2013-03-24 01:30:00,72.8,69.4,29.74,WSW,253,0.0,7.0,89,0.00,,---,0.00,VWS V14.01,2013-03-24 05:30:00,
2013-03-24 01:32:00,73.0,69.6,29.76,WSW,251,4.0,10.0,89,0.00,,---,0.00,VWS V14.01,2013-03-24 05:32:00,
2013-03-24 01:37:00,73.0,69.2,29.76,WSW,250,4.0,10.0,88,0.00,,---,0.00,VWS V14.01,2013-03-24 05:37:00,
2013-03-24 01:42:00,73.0,69.6,29.76,WSW,254,1.0,10.0,89,0.00,,---,0.00,VWS V14.01,2013-03-24 05:42:00,
2013-03-24 01:47:00,73.0,69.2,29.75,WSW,253,0.0,10.0,88,0.00,,---,0.00,VWS V14.01,2013-03-24 05:47:00,
2013-03-24 01:52:00,73.0,69.6,29.75,WSW,250,0.0,10.0,89,0.00,,---,0.00,VWS V14.01,2013-03-24 05:52:00,
2013-03-24 01:57:00,73.0,69.6,29.75,WSW,248,6.0,10.0,89,0.00,,---,0.00,VWS V14.01,2013-03-24 05:57:00,
2013-03-24 02:00:00,72.7,69.6,29.74,WSW,247,6.0,7.0,90,0.00,,---,0.00,VWS V14.01,2013-03-24 06:00:00,
2013-03-24 02:02:00,73.0,69.6,29.75,WSW,250,0.0,6.0,89,0.00,,---,0.00,VWS V14.01,2013-03-24 06:02:00,
2013-03-24 02:07:00,72.8,69.4,29.75,WSW,254,1.0,7.0,89,0.00,,---,0.00,VWS V14.01,2013-03-24 06:07:00,
2013-03-24 02:12:00,72.8,69.4,29.75,WSW,254,4.0,7.0,89,0.00,,---,0.00,VWS V14.01,2013-03-24 06:12:00,
2013-03-24 02:17:00,72.8,69.4,29.75,WSW,253,2.0,7.0,89,0.00,,---,0.00,VWS V14.01,2013-03-24 06:17:00,
2013-03-24 02:22:00,72.8,69.4,29.75,WSW,248,0.0,7.0,89,0.00,,---,0.00,VWS V14.01,2013-03-24 06:22:00,
2013-03-24 02:27:00,72.8,69.4,29.75,WSW,243,6.0,7.0,89,0.00,,---,0.00,VWS V14.01,2013-03-24 06:27:00,
2013-03-24 02:30:00,72.5,69.7,29.72,WSW,244,0.0,9.0,91,0.00,,---,0.00,VWS V14.01,2013-03-24 06:30:00,
2013-03-24 02:32:00,72.8,69.4,29.74,WSW,254,0.0,6.0,89,0.00,,---,0.00,VWS V14.01,2013-03-24 06:32:00,
2013-03-24 02:37:00,72.8,69.4,29.74,WSW,253,4.0,7.0,89,0.00,,---,0.00,VWS V14.01,2013-03-24 06:37:00,
2013-03-24 02:42:00,72.7,69.6,29.74,WSW,250,0.0,7.0,90,0.00,,---,0.00,VWS V14.01,2013-03-24 06:42:00,
2013-03-24 02:47:00,72.7,69.6,29.74,WSW,247,2.0,7.0,90,0.00,,---,0.00,VWS V14.01,2013-03-24 06:47:00,
2013-03-24 02:52:00,72.7,69.6,29.74,WSW,248,4.0,7.0,90,0.00,,---,0.00,VWS V14.01,2013-03-24 06:52:00,
2013-03-24 02:57:00,72.7,69.6,29.74,WSW,247,1.0,7.0,90,0.00,,---,0.00,VWS V14.01,2013-03-24 06:57:00,
2013-03-24 03:00:00,72.5,69.7,29.71,WSW,257,8.0,9.0,91,0.00,,---,0.00,VWS V14.01,2013-03-24 07:00:00,
2013-03-24 03:02:00,72.5,69.4,29.74,WSW,243,4.0,7.0,90,0.00,,---,0.00,VWS V14.01,2013-03-24 07:02:00,
2013-03-24 03:07:00,72.5,69.4,29.74,WSW,248,1.0,8.0,90,0.00,,---,0.00,VWS V14.01,2013-03-24 07:07:00,
2013-03-24 03:12:00,72.5,69.4,29.74,WSW,246,2.0,8.0,90,0.00,,---,0.00,VWS V14.01,2013-03-24 07:12:00,
2013-03-24 03:17:00,72.5,69.4,29.73,WSW,240,4.0,9.0,90,0.00,,---,0.00,VWS V14.01,2013-03-24 07:17:00,
2013-03-24 03:22:00,72.5,69.7,29.73,WSW,246,6.0,9.0,91,0.00,,---,0.00,VWS V14.01,2013-03-24 07:22:00,
2013-03-24 03:27:00,72.5,69.7,29.73,WSW,246,7.0,9.0,91,0.00,,---,0.00,VWS V14.01,2013-03-24 07:27:00,
2013-03-24 03:30:00,72.7,70.2,29.70,WSW,247,4.0,9.0,92,0.00,,---,0.00,VWS V14.01,2013-03-24 07:30:00,
2013-03-24 03:32:00,72.5,69.7,29.72,WSW,243,6.0,8.0,91,0.00,,---,0.00,VWS V14.01,2013-03-24 07:32:00,
2013-03-24 03:37:00,72.5,69.7,29.72,WSW,244,4.0,9.0,91,0.00,,---,0.00,VWS V14.01,2013-03-24 07:37:00,
2013-03-24 03:42:00,72.5,69.7,29.72,WSW,253,2.0,9.0,91,0.00,,---,0.00,VWS V14.01,2013-03-24 07:42:00,
2013-03-24 03:47:00,72.5,69.7,29.72,WSW,254,7.0,9.0,91,0.00,,---,0.00,VWS V14.01,2013-03-24 07:47:00,
2013-03-24 03:52:00,72.5,69.7,29.72,WSW,250,0.0,9.0,91,0.00,,---,0.00,VWS V14.01,2013-03-24 07:52:00,
2013-03-24 03:57:00,72.5,69.7,29.72,WSW,243,1.0,9.0,91,0.00,,---,0.00,VWS V14.01,2013-03-24 07:57:00,
2013-03-24 04:00:00,73.0,70.9,29.69,WSW,248,7.0,21.0,93,0.00,,---,0.00,VWS V14.01,2013-03-24 08:00:00,
2013-03-24 04:02:00,72.5,69.7,29.71,WSW,248,0.0,8.0,91,0.00,,---,0.00,VWS V14.01,2013-03-24 08:02:00,
2013-03-24 04:07:00,72.5,69.7,29.71,WSW,254,7.0,9.0,91,0.00,,---,0.00,VWS V14.01,2013-03-24 08:07:00,
2013-03-24 04:12:00,72.5,69.7,29.71,WSW,239,4.0,9.0,91,0.00,,---,0.00,VWS V14.01,2013-03-24 08:12:00,
2013-03-24 04:17:00,72.5,70.1,29.71,WSW,241,6.0,9.0,92,0.00,,---,0.00,VWS V14.01,2013-03-24 08:17:00,
2013-03-24 04:22:00,72.7,70.2,29.71,WSW,248,6.0,9.0,92,0.00,,---,0.00,VWS V14.01,2013-03-24 08:22:00,
2013-03-24 04:27:00,72.7,70.2,29.71,WSW,237,8.0,9.0,92,0.00,,---,0.00,VWS V14.01,2013-03-24 08:27:00,
2013-03-24 04:30:00,73.3,71.8,29.67,WSW,256,10.0,18.0,95,0.00,,---,0.00,VWS V14.01,2013-03-24 08:30:00,
2013-03-24 04:32:00,72.8,70.3,29.70,WSW,253,7.0,10.0,92,0.00,,---,0.00,VWS V14.01,2013-03-24 08:32:00,
2013-03-24 04:37:00,72.8,70.3,29.70,WSW,247,6.0,10.0,92,0.00,,---,0.00,VWS V14.01,2013-03-24 08:37:00,
2013-03-24 04:42:00,72.8,70.3,29.70,WSW,247,7.0,11.0,92,0.00,,---,0.00,VWS V14.01,2013-03-24 08:42:00,
2013-03-24 04:47:00,73.0,70.9,29.69,WSW,246,7.0,11.0,93,0.00,,---,0.00,VWS V14.01,2013-03-24 08:47:00,
2013-03-24 04:52:00,73.0,70.9,29.69,WSW,247,9.0,21.0,93,0.00,,---,0.00,VWS V14.01,2013-03-24 08:52:00,
2013-03-24 04:57:00,73.0,70.9,29.69,WSW,248,0.0,21.0,93,0.00,,---,0.00,VWS V14.01,2013-03-24 08:57:00,
2013-03-24 05:00:00,74.9,72.4,29.67,West,263,16.0,28.0,92,0.00,,---,0.00,VWS V14.01,2013-03-24 09:00:00,
2013-03-24 05:02:00,73.0,71.2,29.69,WSW,246,9.0,11.0,94,0.00,,---,0.00,VWS V14.01,2013-03-24 09:02:00,
2013-03-24 05:08:00,73.2,71.4,29.69,WSW,248,8.0,13.0,94,0.00,,---,0.00,VWS V14.01,2013-03-24 09:08:00,
2013-03-24 05:13:00,73.2,71.4,29.69,WSW,247,7.0,14.0,94,0.00,,---,0.00,VWS V14.01,2013-03-24 09:13:00,
2013-03-24 05:17:00,73.2,71.4,29.68,WSW,241,6.0,14.0,94,0.00,,---,0.00,VWS V14.01,2013-03-24 09:17:00,
2013-03-24 05:22:00,73.2,71.4,29.68,WSW,244,8.0,15.0,94,0.00,,---,0.00,VWS V14.01,2013-03-24 09:22:00,
2013-03-24 05:27:00,73.3,71.8,29.68,WSW,253,4.0,18.0,95,0.00,,---,0.00,VWS V14.01,2013-03-24 09:27:00,
2013-03-24 05:30:00,74.6,72.4,29.66,WSW,239,15.0,26.0,93,0.00,,---,0.00,VWS V14.01,2013-03-24 09:30:00,
2013-03-24 05:32:00,73.5,72.0,29.67,WSW,248,7.0,18.0,95,0.00,,---,0.00,VWS V14.01,2013-03-24 09:32:00,
2013-03-24 05:37:00,74.0,72.5,29.67,SW,236,10.0,18.0,95,0.00,,---,0.00,VWS V14.01,2013-03-24 09:37:00,
2013-03-24 05:42:00,74.4,72.6,29.67,WSW,248,9.0,18.0,94,0.00,,---,0.00,VWS V14.01,2013-03-24 09:42:00,
2013-03-24 05:47:00,74.7,72.6,29.67,West,261,10.0,20.0,93,0.00,,---,0.00,VWS V14.01,2013-03-24 09:47:00,
2013-03-24 05:52:00,74.9,72.4,29.67,WSW,251,9.0,20.0,92,0.00,,---,0.00,VWS V14.01,2013-03-24 09:52:00,
2013-03-24 05:57:00,74.9,72.4,29.67,WSW,257,9.0,28.0,92,0.00,,---,0.00,VWS V14.01,2013-03-24 09:57:00,
2013-03-24 06:00:00,74.6,72.4,29.66,WSW,246,15.0,28.0,93,0.00,,---,0.00,VWS V14.01,2013-03-24 10:00:00,
2013-03-24 06:02:00,74.9,72.4,29.67,WSW,243,10.0,16.0,92,0.00,,---,0.00,VWS V14.01,2013-03-24 10:02:00,
2013-03-24 06:07:00,74.9,72.4,29.67,WSW,254,7.0,25.0,92,0.00,,---,0.00,VWS V14.01,2013-03-24 10:07:00,
2013-03-24 06:12:00,74.7,72.2,29.67,WSW,237,14.0,25.0,92,0.00,,---,0.00,VWS V14.01,2013-03-24 10:12:00,
2013-03-24 06:17:00,74.7,72.6,29.66,WSW,258,14.0,25.0,93,0.00,,---,0.00,VWS V14.01,2013-03-24 10:17:00,
2013-03-24 06:22:00,74.7,72.6,29.66,West,265,9.0,25.0,93,0.00,,---,0.00,VWS V14.01,2013-03-24 10:22:00,
2013-03-24 06:27:00,74.6,72.4,29.66,WSW,257,14.0,25.0,93,0.00,,---,0.00,VWS V14.01,2013-03-24 10:27:00,
2013-03-24 06:30:00,74.4,72.2,29.66,WSW,240,6.0,25.0,93,0.00,,---,0.00,VWS V14.01,2013-03-24 10:30:00,
2013-03-24 06:32:00,74.6,72.4,29.66,West,261,7.0,22.0,93,0.00,,---,0.00,VWS V14.01,2013-03-24 10:32:00,
2013-03-24 06:37:00,74.6,72.4,29.66,WSW,257,15.0,26.0,93,0.00,,---,0.00,VWS V14.01,2013-03-24 10:37:00,
2013-03-24 06:42:00,74.6,72.4,29.66,WSW,250,11.0,28.0,93,0.00,,---,0.00,VWS V14.01,2013-03-24 10:42:00,
2013-03-24 06:47:00,74.6,72.4,29.66,West,264,17.0,28.0,93,0.00,,---,0.00,VWS V14.01,2013-03-24 10:47:00,
2013-03-24 06:52:00,74.6,72.4,29.66,WSW,254,4.0,28.0,93,0.00,,---,0.00,VWS V14.01,2013-03-24 10:52:00,
2013-03-24 06:57:00,74.6,72.4,29.66,West,260,13.0,28.0,93,0.00,,---,0.00,VWS V14.01,2013-03-24 10:57:00,
2013-03-24 07:00:00,74.9,73.1,29.66,SW,234,15.0,24.0,94,0.00,,---,0.00,VWS V14.01,2013-03-24 11:00:00,
2013-03-24 07:02:00,74.6,72.4,29.66,WSW,244,9.0,25.0,93,0.00,,---,0.00,VWS V14.01,2013-03-24 11:02:00,
2013-03-24 07:07:00,74.6,72.4,29.66,WSW,250,15.0,25.0,93,0.00,,---,0.00,VWS V14.01,2013-03-24 11:07:00,
2013-03-24 07:12:00,74.6,72.4,29.66,SW,234,10.0,25.0,93,0.00,,---,0.00,VWS V14.01,2013-03-24 11:12:00,
2013-03-24 07:17:00,74.6,72.4,29.66,West,277,6.0,25.0,93,0.00,,---,0.00,VWS V14.01,2013-03-24 11:17:00,
2013-03-24 07:22:00,74.6,72.4,29.66,WSW,257,8.0,25.0,93,0.00,,---,0.00,VWS V14.01,2013-03-24 11:22:00,
2013-03-24 07:27:00,74.4,72.2,29.66,WSW,239,9.0,25.0,93,0.00,,---,0.00,VWS V14.01,2013-03-24 11:27:00,
2013-03-24 07:30:00,75.4,73.2,29.66,West,277,6.0,25.0,93,0.00,,---,0.00,VWS V14.01,2013-03-24 11:30:00,
2013-03-24 07:32:00,74.4,72.6,29.66,West,260,11.0,17.0,94,0.00,,---,0.00,VWS V14.01,2013-03-24 11:32:00,
2013-03-24 07:37:00,74.6,72.8,29.66,West,267,11.0,23.0,94,0.00,,---,0.00,VWS V14.01,2013-03-24 11:37:00,
2013-03-24 07:42:00,74.6,72.8,29.66,WSW,251,7.0,23.0,94,0.00,,---,0.00,VWS V14.01,2013-03-24 11:42:00,
2013-03-24 07:47:00,74.7,72.9,29.66,WSW,243,10.0,23.0,94,0.00,,---,0.00,VWS V14.01,2013-03-24 11:47:00,
2013-03-24 07:52:00,74.7,72.9,29.66,West,261,14.0,24.0,94,0.00,,---,0.00,VWS V14.01,2013-03-24 11:52:00,
2013-03-24 07:57:00,74.9,73.1,29.66,SW,232,13.0,24.0,94,0.00,,---,0.00,VWS V14.01,2013-03-24 11:57:00,
2013-03-24 08:00:00,76.0,73.5,29.67,West,278,11.0,28.0,92,0.00,,---,0.00,VWS V14.01,2013-03-24 12:00:00,
2013-03-24 08:02:00,74.9,73.1,29.66,WSW,244,15.0,22.0,94,0.00,,---,0.00,VWS V14.01,2013-03-24 12:02:00,
2013-03-24 08:08:00,74.9,73.1,29.66,WSW,253,22.0,25.0,94,0.00,,---,0.00,VWS V14.01,2013-03-24 12:08:00,
2013-03-24 08:13:00,75.1,73.3,29.66,West,272,8.0,25.0,94,0.00,,---,0.00,VWS V14.01,2013-03-24 12:13:00,
2013-03-24 08:18:00,75.1,73.3,29.66,WSW,247,14.0,25.0,94,0.00,,---,0.00,VWS V14.01,2013-03-24 12:18:00,
2013-03-24 08:23:00,75.3,73.1,29.66,WSW,243,10.0,25.0,93,0.00,,---,0.00,VWS V14.01,2013-03-24 12:23:00,
2013-03-24 08:28:00,75.4,73.2,29.66,WSW,251,14.0,25.0,93,0.00,,---,0.00,VWS V14.01,2013-03-24 12:28:00,
2013-03-24 08:30:00,76.1,73.3,29.68,WSW,253,10.0,30.0,91,0.00,,---,0.00,VWS V14.01,2013-03-24 12:30:00,
2013-03-24 08:33:00,75.4,73.2,29.66,WSW,248,8.0,17.0,93,0.00,,---,0.00,VWS V14.01,2013-03-24 12:33:00,
2013-03-24 08:38:00,75.6,73.4,29.66,West,263,17.0,22.0,93,0.00,,---,0.00,VWS V14.01,2013-03-24 12:38:00,
2013-03-24 08:42:00,75.6,73.1,29.66,WSW,253,13.0,22.0,92,0.00,,---,0.00,VWS V14.01,2013-03-24 12:42:00,
2013-03-24 08:47:00,75.8,73.3,29.67,West,263,10.0,25.0,92,0.00,,---,0.00,VWS V14.01,2013-03-24 12:47:00,
2013-03-24 08:52:00,75.8,73.3,29.67,WSW,247,15.0,28.0,92,0.00,,---,0.00,VWS V14.01,2013-03-24 12:52:00,
2013-03-24 08:57:00,76.0,73.5,29.67,West,260,20.0,28.0,92,0.00,,---,0.00,VWS V14.01,2013-03-24 12:57:00,
2013-03-24 09:00:00,77.2,73.7,29.69,WSW,256,13.0,29.0,89,0.00,,---,0.00,VWS V14.01,2013-03-24 13:00:00,
2013-03-24 09:02:00,76.0,73.5,29.67,WSW,241,10.0,23.0,92,0.00,,---,0.00,VWS V14.01,2013-03-24 13:02:00,
2013-03-24 09:07:00,75.8,73.3,29.67,West,270,9.0,25.0,92,0.00,,---,0.00,VWS V14.01,2013-03-24 13:07:00,
2013-03-24 09:12:00,76.0,73.5,29.67,WSW,243,25.0,28.0,92,0.00,,---,0.00,VWS V14.01,2013-03-24 13:12:00,
2013-03-24 09:17:00,76.0,73.5,29.68,WSW,253,14.0,30.0,92,0.00,,---,0.00,VWS V14.01,2013-03-24 13:17:00,
2013-03-24 09:22:00,76.0,73.5,29.68,WSW,251,6.0,30.0,92,0.00,,---,0.00,VWS V14.01,2013-03-24 13:22:00,
2013-03-24 09:27:00,76.1,73.3,29.68,WSW,251,14.0,30.0,91,0.00,,---,0.00,VWS V14.01,2013-03-24 13:27:00,
2013-03-24 09:30:00,77.6,73.8,29.70,WSW,250,8.0,26.0,88,0.00,,---,0.00,VWS V14.01,2013-03-24 13:30:00,
2013-03-24 09:32:00,76.3,73.5,29.68,WSW,256,13.0,29.0,91,0.00,,---,0.00,VWS V14.01,2013-03-24 13:32:00,
2013-03-24 09:37:00,76.5,73.7,29.68,WSW,244,14.0,29.0,91,0.00,,---,0.00,VWS V14.01,2013-03-24 13:37:00,
2013-03-24 09:42:00,76.5,73.7,29.68,WSW,237,11.0,29.0,91,0.00,,---,0.00,VWS V14.01,2013-03-24 13:42:00,
2013-03-24 09:47:00,76.5,73.3,29.69,WSW,248,9.0,29.0,90,0.00,,---,0.00,VWS V14.01,2013-03-24 13:47:00,
2013-03-24 09:52:00,76.8,73.7,29.69,SW,236,18.0,29.0,90,0.00,,---,0.00,VWS V14.01,2013-03-24 13:52:00,
2013-03-24 09:58:00,77.2,73.7,29.69,WSW,241,10.0,29.0,89,0.00,,---,0.00,VWS V14.01,2013-03-24 13:58:00,
2013-03-24 10:00:00,77.9,73.7,29.71,WSW,239,11.0,29.0,87,0.00,,---,0.00,VWS V14.01,2013-03-24 14:00:00,
2013-03-24 10:03:00,77.0,73.5,29.69,West,275,17.0,25.0,89,0.00,,---,0.00,VWS V14.01,2013-03-24 14:03:00,
2013-03-24 10:08:00,77.2,73.7,29.69,WSW,256,13.0,25.0,89,0.00,,---,0.00,VWS V14.01,2013-03-24 14:08:00,
2013-03-24 10:13:00,77.0,73.5,29.69,West,261,21.0,25.0,89,0.00,,---,0.00,VWS V14.01,2013-03-24 14:13:00,
2013-03-24 10:18:00,77.4,73.9,29.70,WSW,237,13.0,25.0,89,0.00,,---,0.00,VWS V14.01,2013-03-24 14:18:00,
2013-03-24 10:23:00,77.4,73.6,29.70,WSW,246,17.0,25.0,88,0.00,,---,0.00,VWS V14.01,2013-03-24 14:23:00,
2013-03-24 10:28:00,77.6,73.8,29.70,WSW,257,15.0,26.0,88,0.00,,---,0.00,VWS V14.01,2013-03-24 14:28:00,
2013-03-24 10:30:00,78.8,73.9,29.71,WSW,254,6.0,26.0,85,0.00,,---,0.00,VWS V14.01,2013-03-24 14:30:00,
2013-03-24 10:33:00,77.4,73.6,29.70,WSW,243,13.0,26.0,88,0.00,,---,0.00,VWS V14.01,2013-03-24 14:33:00,
2013-03-24 10:38:00,77.7,73.9,29.70,West,267,17.0,28.0,88,0.00,,---,0.00,VWS V14.01,2013-03-24 14:38:00,
2013-03-24 10:43:00,77.9,73.7,29.70,WSW,250,9.0,28.0,87,0.00,,---,0.00,VWS V14.01,2013-03-24 14:43:00,
2013-03-24 10:48:00,78.1,73.9,29.71,WSW,250,24.0,28.0,87,0.00,,---,0.00,VWS V14.01,2013-03-24 14:48:00,
2013-03-24 10:53:00,78.1,73.6,29.71,West,268,22.0,28.0,86,0.00,,---,0.00,VWS V14.01,2013-03-24 14:53:00,
2013-03-24 10:58:00,77.9,73.4,29.71,WSW,254,11.0,29.0,86,0.00,,---,0.00,VWS V14.01,2013-03-24 14:58:00,
2013-03-24 11:00:00,79.8,74.2,29.72,WSW,250,14.0,31.0,83,0.00,,---,0.00,VWS V14.01,2013-03-24 15:00:00,
2013-03-24 11:03:00,77.9,73.7,29.71,WSW,257,13.0,22.0,87,0.00,,---,0.00,VWS V14.01,2013-03-24 15:03:00,
2013-03-24 11:08:00,78.3,73.8,29.71,SW,234,6.0,26.0,86,0.00,,---,0.00,VWS V14.01,2013-03-24 15:08:00,
2013-03-24 11:13:00,78.5,73.6,29.71,WSW,258,10.0,26.0,85,0.00,,---,0.00,VWS V14.01,2013-03-24 15:13:00,
2013-03-24 11:18:00,79.0,74.1,29.71,WSW,254,9.0,26.0,85,0.00,,---,0.00,VWS V14.01,2013-03-24 15:18:00,
2013-03-24 11:23:00,79.2,73.9,29.71,WSW,251,7.0,26.0,84,0.00,,---,0.00,VWS V14.01,2013-03-24 15:23:00,
2013-03-24 11:28:00,78.8,73.9,29.71,West,261,17.0,26.0,85,0.00,,---,0.00,VWS V14.01,2013-03-24 15:28:00,
2013-03-24 11:30:00,79.4,74.2,29.74,West,281,9.0,28.0,84,0.00,,---,0.00,VWS V14.01,2013-03-24 15:30:00,
2013-03-24 11:33:00,78.8,73.9,29.71,WSW,251,17.0,30.0,85,0.00,,---,0.00,VWS V14.01,2013-03-24 15:33:00,
2013-03-24 11:38:00,78.8,73.9,29.71,West,268,6.0,30.0,85,0.00,,---,0.00,VWS V14.01,2013-03-24 15:38:00,
2013-03-24 11:43:00,78.8,73.9,29.71,WSW,254,6.0,30.0,85,0.00,,---,0.00,VWS V14.01,2013-03-24 15:43:00,
2013-03-24 11:48:00,79.2,73.9,29.71,West,267,18.0,31.0,84,0.00,,---,0.00,VWS V14.01,2013-03-24 15:48:00,
2013-03-24 11:53:00,79.8,74.2,29.71,WSW,253,8.0,31.0,83,0.00,,---,0.00,VWS V14.01,2013-03-24 15:53:00,
2013-03-24 11:58:00,79.8,74.2,29.71,West,271,20.0,31.0,83,0.00,,---,0.00,VWS V14.01,2013-03-24 15:58:00,
2013-03-24 12:00:00,77.7,73.5,29.74,WSW,258,8.0,24.0,87,0.00,,---,0.00,VWS V14.01,2013-03-24 16:00:00,
2013-03-24 12:03:00,79.6,74.0,29.72,WSW,247,10.0,26.0,83,0.00,,---,0.00,VWS V14.01,2013-03-24 16:03:00,
2013-03-24 12:08:00,79.4,74.2,29.72,West,277,7.0,26.0,84,0.00,,---,0.00,VWS V14.01,2013-03-24 16:08:00,
2013-03-24 12:13:00,79.2,73.9,29.72,West,271,17.0,28.0,84,0.00,,---,0.00,VWS V14.01,2013-03-24 16:13:00,
2013-03-24 12:18:00,79.6,74.3,29.73,WSW,253,22.0,28.0,84,0.00,,---,0.00,VWS V14.01,2013-03-24 16:18:00,
2013-03-24 12:23:00,79.8,74.5,29.73,West,272,18.0,28.0,84,0.00,,---,0.00,VWS V14.01,2013-03-24 16:23:00,
2013-03-24 12:28:00,79.4,74.2,29.73,SW,236,9.0,28.0,84,0.00,,---,0.00,VWS V14.01,2013-03-24 16:28:00,
2013-03-24 12:30:00,78.3,73.8,29.73,WNW,288,6.0,24.0,86,0.00,,---,0.00,VWS V14.01,2013-03-24 16:30:00,
2013-03-24 12:33:00,79.2,73.9,29.74,West,275,10.0,24.0,84,0.00,,---,0.00,VWS V14.01,2013-03-24 16:33:00,
2013-03-24 12:38:00,78.5,73.6,29.74,West,264,6.0,24.0,85,0.00,,---,0.00,VWS V14.01,2013-03-24 16:38:00,
2013-03-24 12:43:00,78.3,73.8,29.74,West,272,8.0,24.0,86,0.00,,---,0.00,VWS V14.01,2013-03-24 16:43:00,
2013-03-24 12:48:00,78.1,73.9,29.74,WNW,284,10.0,24.0,87,0.00,,---,0.00,VWS V14.01,2013-03-24 16:48:00,
2013-03-24 12:53:00,77.9,73.4,29.74,West,261,6.0,24.0,86,0.00,,---,0.00,VWS V14.01,2013-03-24 16:53:00,
2013-03-24 12:58:00,77.7,73.5,29.74,West,270,8.0,24.0,87,0.00,,---,0.00,VWS V14.01,2013-03-24 16:58:00,
2013-03-24 13:00:00,79.9,73.9,29.69,WSW,257,16.0,21.0,82,0.00,,---,0.00,VWS V14.01,2013-03-24 17:00:00,
2013-03-24 13:03:00,77.7,73.5,29.74,West,274,14.0,20.0,87,0.00,,---,0.00,VWS V14.01,2013-03-24 17:03:00,
2013-03-24 13:08:00,77.7,73.5,29.74,West,281,2.0,20.0,87,0.00,,---,0.00,VWS V14.01,2013-03-24 17:08:00,
2013-03-24 13:13:00,77.7,73.5,29.74,WNW,284,2.0,20.0,87,0.00,,---,0.00,VWS V14.01,2013-03-24 17:13:00,
2013-03-24 13:18:00,77.9,73.7,29.74,West,280,4.0,20.0,87,0.00,,---,0.00,VWS V14.01,2013-03-24 17:18:00,
2013-03-24 13:23:00,78.1,73.9,29.74,West,272,0.0,20.0,87,0.00,,---,0.00,VWS V14.01,2013-03-24 17:23:00,
2013-03-24 13:28:00,78.3,73.8,29.74,West,263,7.0,24.0,86,0.00,,---,0.00,VWS V14.01,2013-03-24 17:28:00,
2013-03-24 13:30:00,80.5,73.8,29.68,WSW,258,20.0,24.0,80,0.00,,---,0.00,VWS V14.01,2013-03-24 17:30:00,
2013-03-24 13:33:00,78.6,74.1,29.73,West,275,16.0,16.0,86,0.00,,---,0.00,VWS V14.01,2013-03-24 17:33:00,
2013-03-24 13:38:00,79.2,74.3,29.73,West,280,6.0,16.0,85,0.00,,---,0.00,VWS V14.01,2013-03-24 17:38:00,
2013-03-24 13:43:00,79.2,73.9,29.73,West,277,2.0,16.0,84,0.00,,---,0.00,VWS V14.01,2013-03-24 17:43:00,
2013-03-24 13:48:00,79.4,73.8,29.71,West,275,7.0,16.0,83,0.00,,---,0.00,VWS V14.01,2013-03-24 17:48:00,
2013-03-24 13:53:00,79.8,73.8,29.71,West,267,7.0,17.0,82,0.00,,---,0.00,VWS V14.01,2013-03-24 17:53:00,
2013-03-24 13:58:00,79.8,73.8,29.71,West,277,7.0,18.0,82,0.00,,---,0.00,VWS V14.01,2013-03-24 17:58:00,
2013-03-24 14:00:00,79.9,73.2,29.67,West,263,15.0,24.0,80,0.00,,---,0.00,VWS V14.01,2013-03-24 18:00:00,
2013-03-24 14:03:00,79.9,73.9,29.69,WSW,256,7.0,21.0,82,0.00,,---,0.00,VWS V14.01,2013-03-24 18:03:00,
2013-03-24 14:08:00,80.1,73.8,29.69,WSW,256,10.0,21.0,81,0.00,,---,0.00,VWS V14.01,2013-03-24 18:08:00,
2013-03-24 14:13:00,80.1,73.4,29.69,WNW,288,20.0,21.0,80,0.00,,---,0.00,VWS V14.01,2013-03-24 18:13:00,
2013-03-24 14:18:00,80.3,73.6,29.69,West,281,13.0,21.0,80,0.00,,---,0.00,VWS V14.01,2013-03-24 18:18:00,
2013-03-24 14:23:00,80.3,73.6,29.69,West,270,11.0,21.0,80,0.00,,---,0.00,VWS V14.01,2013-03-24 18:23:00,
2013-03-24 14:28:00,80.3,73.6,29.69,WSW,257,2.0,24.0,80,0.00,,---,0.00,VWS V14.01,2013-03-24 18:28:00,
2013-03-24 14:30:00,79.8,73.1,29.66,West,278,20.0,24.0,80,0.00,,---,0.00,VWS V14.01,2013-03-24 18:30:00,
2013-03-24 14:33:00,80.9,73.8,29.68,WSW,251,6.0,21.0,79,0.00,,---,0.00,VWS V14.01,2013-03-24 18:33:00,
2013-03-24 14:38:00,81.1,73.6,29.68,West,272,20.0,24.0,78,0.00,,---,0.00,VWS V14.01,2013-03-24 18:38:00,
2013-03-24 14:43:00,80.7,73.6,29.68,West,267,8.0,24.0,79,0.00,,---,0.00,VWS V14.01,2013-03-24 18:43:00,
2013-03-24 14:48:00,80.1,73.4,29.68,WSW,256,9.0,24.0,80,0.00,,---,0.00,VWS V14.01,2013-03-24 18:48:00,
2013-03-24 14:53:00,79.9,73.2,29.68,WSW,246,15.0,24.0,80,0.00,,---,0.00,VWS V14.01,2013-03-24 18:53:00,
2013-03-24 14:58:00,79.9,73.2,29.68,West,267,8.0,24.0,80,0.00,,---,0.00,VWS V14.01,2013-03-24 18:58:00,
2013-03-24 15:00:00,79.6,73.3,29.66,West,275,0.0,25.0,81,0.00,,---,0.00,VWS V14.01,2013-03-24 19:00:00,
2013-03-24 15:03:00,79.9,73.2,29.67,WSW,244,9.0,17.0,80,0.00,,---,0.00,VWS V14.01,2013-03-24 19:03:00,
2013-03-24 15:08:00,80.5,73.4,29.67,WNW,285,14.0,22.0,79,0.00,,---,0.00,VWS V14.01,2013-03-24 19:08:00,
2013-03-24 15:13:00,80.1,73.0,29.67,WSW,256,7.0,24.0,79,0.00,,---,0.00,VWS V14.01,2013-03-24 19:13:00,
2013-03-24 15:18:00,79.9,73.2,29.65,WSW,256,13.0,24.0,80,0.00,,---,0.00,VWS V14.01,2013-03-24 19:18:00,
2013-03-24 15:23:00,80.1,73.4,29.65,WSW,256,9.0,24.0,80,0.00,,---,0.00,VWS V14.01,2013-03-24 19:23:00,
2013-03-24 15:28:00,79.8,73.4,29.65,West,268,10.0,24.0,81,0.00,,---,0.00,VWS V14.01,2013-03-24 19:28:00,
2013-03-24 15:30:00,80.3,73.6,29.64,WSW,258,4.0,21.0,80,0.00,,---,0.00,VWS V14.01,2013-03-24 19:30:00,
2013-03-24 15:33:00,79.4,73.1,29.66,West,271,9.0,25.0,81,0.00,,---,0.00,VWS V14.01,2013-03-24 19:33:00,
2013-03-24 15:38:00,79.4,73.4,29.66,West,267,10.0,25.0,82,0.00,,---,0.00,VWS V14.01,2013-03-24 19:38:00,
2013-03-24 15:43:00,79.4,73.1,29.66,West,264,20.0,25.0,81,0.00,,---,0.00,VWS V14.01,2013-03-24 19:43:00,
2013-03-24 15:48:00,79.2,72.9,29.65,WSW,257,9.0,25.0,81,0.00,,---,0.00,VWS V14.01,2013-03-24 19:48:00,
2013-03-24 15:53:00,79.6,73.3,29.65,West,265,14.0,25.0,81,0.00,,---,0.00,VWS V14.01,2013-03-24 19:53:00,
2013-03-24 15:58:00,79.6,73.3,29.65,West,275,9.0,25.0,81,0.00,,---,0.00,VWS V14.01,2013-03-24 19:58:00,
2013-03-24 16:00:00,79.4,73.1,29.63,WSW,257,10.0,23.0,81,0.00,,---,0.00,VWS V14.01,2013-03-24 20:00:00,
2013-03-24 16:03:00,79.4,73.1,29.66,West,261,0.0,15.0,81,0.00,,---,0.00,VWS V14.01,2013-03-24 20:03:00,
2013-03-24 16:08:00,79.4,73.1,29.66,West,277,6.0,18.0,81,0.00,,---,0.00,VWS V14.01,2013-03-24 20:08:00,
2013-03-24 16:13:00,79.8,73.4,29.66,WNW,288,11.0,18.0,81,0.00,,---,0.00,VWS V14.01,2013-03-24 20:13:00,
2013-03-24 16:18:00,80.5,73.8,29.65,WNW,288,14.0,18.0,80,0.00,,---,0.00,VWS V14.01,2013-03-24 20:18:00,
2013-03-24 16:23:00,80.3,73.6,29.65,West,264,16.0,21.0,80,0.00,,---,0.00,VWS V14.01,2013-03-24 20:23:00,
2013-03-24 16:28:00,80.3,73.6,29.65,West,277,8.0,21.0,80,0.00,,---,0.00,VWS V14.01,2013-03-24 20:28:00,
2013-03-24 16:30:00,78.1,72.9,29.63,WSW,241,10.0,20.0,84,0.00,,---,0.00,VWS V14.01,2013-03-24 20:30:00,
2013-03-24 16:33:00,80.7,73.6,29.64,West,260,6.0,14.0,79,0.00,,---,0.00,VWS V14.01,2013-03-24 20:33:00,
2013-03-24 16:38:00,80.5,73.4,29.64,West,260,14.0,17.0,79,0.00,,---,0.00,VWS V14.01,2013-03-24 20:38:00,
2013-03-24 16:43:00,80.1,73.4,29.64,WSW,251,13.0,18.0,80,0.00,,---,0.00,VWS V14.01,2013-03-24 20:43:00,
2013-03-24 16:48:00,80.1,73.0,29.63,West,271,14.0,23.0,79,0.00,,---,0.00,VWS V14.01,2013-03-24 20:48:00,
2013-03-24 16:53:00,79.8,73.1,29.63,WSW,253,9.0,23.0,80,0.00,,---,0.00,VWS V14.01,2013-03-24 20:53:00,
2013-03-24 16:58:00,79.4,73.1,29.63,West,268,7.0,23.0,81,0.00,,---,0.00,VWS V14.01,2013-03-24 20:58:00,
2013-03-24 17:00:00,77.2,72.7,29.63,WNW,282,6.0,23.0,86,0.00,,---,0.00,VWS V14.01,2013-03-24 21:00:00,
2013-03-24 17:03:00,79.4,73.4,29.63,West,275,11.0,17.0,82,0.00,,---,0.00,VWS V14.01,2013-03-24 21:03:00,
2013-03-24 17:08:00,79.0,72.7,29.63,West,277,8.0,20.0,81,0.00,,---,0.00,VWS V14.01,2013-03-24 21:08:00,
2013-03-24 17:13:00,78.6,72.7,29.63,WNW,284,7.0,20.0,82,0.00,,---,0.00,VWS V14.01,2013-03-24 21:13:00,
2013-03-24 17:18:00,78.5,72.9,29.63,West,280,2.0,20.0,83,0.00,,---,0.00,VWS V14.01,2013-03-24 21:18:00,
2013-03-24 17:23:00,78.5,72.9,29.63,WNW,287,6.0,20.0,83,0.00,,---,0.00,VWS V14.01,2013-03-24 21:23:00,
2013-03-24 17:28:00,78.1,72.9,29.63,WNW,284,11.0,20.0,84,0.00,,---,0.00,VWS V14.01,2013-03-24 21:28:00,
2013-03-24 17:30:00,76.8,73.3,29.64,West,280,0.0,14.0,89,0.00,,---,0.00,VWS V14.01,2013-03-24 21:30:00,
2013-03-24 17:33:00,77.9,73.0,29.63,West,278,6.0,16.0,85,0.00,,---,0.00,VWS V14.01,2013-03-24 21:33:00,
2013-03-24 17:38:00,77.6,72.7,29.63,West,264,7.0,23.0,85,0.00,,---,0.00,VWS V14.01,2013-03-24 21:38:00,
2013-03-24 17:43:00,77.6,72.7,29.63,West,260,7.0,23.0,85,0.00,,---,0.00,VWS V14.01,2013-03-24 21:43:00,
2013-03-24 17:48:00,77.6,72.7,29.62,West,271,7.0,23.0,85,0.00,,---,0.00,VWS V14.01,2013-03-24 21:48:00,
2013-03-24 17:53:00,77.4,72.5,29.62,West,280,8.0,23.0,85,0.00,,---,0.00,VWS V14.01,2013-03-24 21:53:00,
2013-03-24 17:58:00,77.2,72.7,29.62,West,277,2.0,23.0,86,0.00,,---,0.00,VWS V14.01,2013-03-24 21:58:00,
2013-03-24 18:00:00,75.8,73.9,29.64,WNW,288,2.0,17.0,94,0.02,,---,0.02,VWS V14.01,2013-03-24 22:00:00,
2013-03-24 18:03:00,77.0,72.5,29.63,West,281,7.0,13.0,86,0.00,,---,0.00,VWS V14.01,2013-03-24 22:03:00,
2013-03-24 18:08:00,76.8,72.6,29.63,WNW,284,1.0,14.0,87,0.00,,---,0.00,VWS V14.01,2013-03-24 22:08:00,
2013-03-24 18:13:00,76.8,72.6,29.63,West,274,0.0,14.0,87,0.00,,---,0.00,VWS V14.01,2013-03-24 22:13:00,
2013-03-24 18:18:00,76.8,73.0,29.63,WNW,284,1.0,14.0,88,0.00,,---,0.00,VWS V14.01,2013-03-24 22:18:00,
2013-03-24 18:23:00,77.0,73.2,29.63,West,275,0.0,14.0,88,0.00,,---,0.00,VWS V14.01,2013-03-24 22:23:00,
2013-03-24 18:28:00,76.8,73.3,29.63,West,267,6.0,14.0,89,0.00,,---,0.00,VWS V14.01,2013-03-24 22:28:00,
2013-03-24 18:30:00,76.0,73.8,29.65,WNW,289,4.0,11.0,93,0.02,,---,0.02,VWS V14.01,2013-03-24 22:30:00,
2013-03-24 18:33:00,76.8,73.3,29.64,West,272,9.0,17.0,89,0.00,,---,0.00,VWS V14.01,2013-03-24 22:33:00,
2013-03-24 18:38:00,76.7,73.2,29.64,West,265,2.0,17.0,89,0.00,,---,0.00,VWS V14.01,2013-03-24 22:38:00,
2013-03-24 18:43:00,76.5,73.7,29.64,West,281,9.0,17.0,91,0.02,,---,0.02,VWS V14.01,2013-03-24 22:43:00,
2013-03-24 18:48:00,76.1,73.6,29.64,West,267,0.0,17.0,92,0.02,,---,0.02,VWS V14.01,2013-03-24 22:48:00,
2013-03-24 18:53:00,75.8,73.6,29.64,WNW,288,4.0,17.0,93,0.02,,---,0.02,VWS V14.01,2013-03-24 22:53:00,
2013-03-24 18:58:00,75.8,73.9,29.64,West,274,1.0,17.0,94,0.02,,---,0.02,VWS V14.01,2013-03-24 22:58:00,
2013-03-24 19:00:00,76.3,73.8,29.65,WNW,292,4.0,16.0,92,0.02,,---,0.02,VWS V14.01,2013-03-24 23:00:00,
2013-03-24 19:03:00,75.8,73.9,29.64,West,274,0.0,10.0,94,0.02,,---,0.02,VWS V14.01,2013-03-24 23:03:00,
2013-03-24 19:08:00,75.8,73.9,29.64,West,277,0.0,11.0,94,0.02,,---,0.02,VWS V14.01,2013-03-24 23:08:00,
2013-03-24 19:13:00,75.8,73.9,29.64,WNW,284,4.0,11.0,94,0.02,,---,0.02,VWS V14.01,2013-03-24 23:13:00,
2013-03-24 19:18:00,75.8,73.9,29.64,WNW,287,7.0,11.0,94,0.02,,---,0.02,VWS V14.01,2013-03-24 23:18:00,
2013-03-24 19:23:00,76.0,73.8,29.64,West,274,0.0,11.0,93,0.02,,---,0.02,VWS V14.01,2013-03-24 23:23:00,
2013-03-24 19:28:00,76.0,73.8,29.64,West,271,2.0,11.0,93,0.02,,---,0.02,VWS V14.01,2013-03-24 23:28:00,
2013-03-24 19:30:00,76.8,74.0,29.66,WNW,299,6.0,16.0,91,0.00,,---,0.02,VWS V14.01,2013-03-24 23:30:00,
2013-03-24 19:33:00,76.1,73.9,29.65,WNW,287,6.0,11.0,93,0.02,,---,0.02,VWS V14.01,2013-03-24 23:33:00,
2013-03-24 19:38:00,76.1,73.9,29.65,WNW,289,2.0,11.0,93,0.02,,---,0.02,VWS V14.01,2013-03-24 23:38:00,
2013-03-24 19:43:00,76.1,73.6,29.65,WNW,285,8.0,15.0,92,0.02,,---,0.02,VWS V14.01,2013-03-24 23:43:00,
2013-03-24 19:48:00,76.3,73.8,29.65,West,277,7.0,15.0,92,0.02,,---,0.02,VWS V14.01,2013-03-24 23:48:00,
2013-03-24 19:53:00,76.3,73.8,29.65,WNW,282,6.0,15.0,92,0.02,,---,0.02,VWS V14.01,2013-03-24 23:53:00,
2013-03-24 19:58:00,76.3,73.8,29.65,WNW,295,13.0,15.0,92,0.02,,---,0.02,VWS V14.01,2013-03-24 23:58:00,
2013-03-24 20:00:00,76.3,73.8,29.65,WNW,292,4.0,16.0,92,0.02,,---,0.02,VWS V14.01,2013-03-25 00:00:00,
2013-03-24 20:03:00,76.5,74.0,29.65,WNW,288,4.0,11.0,92,0.00,,---,0.02,VWS V14.01,2013-03-25 00:03:00,
2013-03-24 20:08:00,76.5,74.0,29.65,WNW,289,2.0,11.0,92,0.00,,---,0.02,VWS V14.01,2013-03-25 00:08:00,
2013-03-24 20:13:00,76.7,74.2,29.65,WNW,299,7.0,11.0,92,0.00,,---,0.02,VWS V14.01,2013-03-25 00:13:00,
2013-03-24 20:18:00,76.7,74.2,29.66,WNW,284,6.0,11.0,92,0.00,,---,0.02,VWS V14.01,2013-03-25 00:18:00,
2013-03-24 20:23:00,76.7,73.9,29.66,WNW,294,4.0,16.0,91,0.00,,---,0.02,VWS V14.01,2013-03-25 00:23:00,
2013-03-24 20:28:00,76.8,74.0,29.66,West,277,13.0,16.0,91,0.00,,---,0.02,VWS V14.01,2013-03-25 00:28:00,
2013-03-24 20:30:00,76.8,74.0,29.66,WNW,299,6.0,16.0,91,0.00,,---,0.02,VWS V14.01,2013-03-25 00:30:00,
2013-03-24 20:33:00,76.8,74.0,29.66,West,267,6.0,13.0,91,0.00,,---,0.02,VWS V14.01,2013-03-25 00:33:00,
2013-03-24 20:38:00,76.8,74.0,29.66,WNW,289,11.0,15.0,91,0.00,,---,0.02,VWS V14.01,2013-03-25 00:38:00,
2013-03-24 20:43:00,76.8,74.0,29.66,West,265,8.0,15.0,91,0.00,,---,0.02,VWS V14.01,2013-03-25 00:43:00,
2013-03-24 20:48:00,76.8,74.0,29.67,WNW,285,4.0,15.0,91,0.00,,---,0.02,VWS V14.01,2013-03-25 00:48:00,
2013-03-24 20:53:00,76.7,73.9,29.67,WNW,294,8.0,18.0,91,0.00,,---,0.02,VWS V14.01,2013-03-25 00:53:00,
2013-03-24 20:58:00,76.7,73.9,29.67,WNW,298,15.0,18.0,91,0.00,,---,0.02,VWS V14.01,2013-03-25 00:58:00,
2013-03-24 21:00:00,76.7,73.9,29.67,WNW,292,2.0,18.0,91,0.00,,---,0.02,VWS V14.01,2013-03-25 01:00:00,
2013-03-24 21:03:00,76.7,73.9,29.67,NW,306,8.0,13.0,91,0.00,,---,0.02,VWS V14.01,2013-03-25 01:03:00,
2013-03-24 21:08:00,76.7,73.9,29.67,WNW,292,0.0,13.0,91,0.00,,---,0.02,VWS V14.01,2013-03-25 01:08:00,
2013-03-24 21:13:00,76.7,74.2,29.67,WNW,285,15.0,15.0,92,0.00,,---,0.02,VWS V14.01,2013-03-25 01:13:00,
2013-03-24 21:18:00,76.5,74.0,29.68,WNW,289,6.0,16.0,92,0.00,,---,0.02,VWS V14.01,2013-03-25 01:18:00,
2013-03-24 21:23:00,76.5,74.0,29.68,WNW,294,4.0,16.0,92,0.00,,---,0.02,VWS V14.01,2013-03-25 01:23:00,
2013-03-24 21:28:00,76.5,74.0,29.68,WNW,299,0.0,16.0,92,0.00,,---,0.02,VWS V14.01,2013-03-25 01:28:00,
2013-03-24 21:30:00,76.5,74.0,29.68,WNW,301,0.0,16.0,92,0.00,,---,0.02,VWS V14.01,2013-03-25 01:30:00,
2013-03-24 21:33:00,76.3,73.8,29.68,WNW,288,0.0,10.0,92,0.00,,---,0.02,VWS V14.01,2013-03-25 01:33:00,
2013-03-24 21:38:00,76.5,74.3,29.68,West,277,1.0,14.0,93,0.00,,---,0.02,VWS V14.01,2013-03-25 01:38:00,
2013-03-24 21:43:00,76.5,74.3,29.68,WNW,292,6.0,14.0,93,0.00,,---,0.02,VWS V14.01,2013-03-25 01:43:00,
2013-03-24 21:48:00,76.5,74.3,29.68,WNW,282,8.0,17.0,93,0.00,,---,0.02,VWS V14.01,2013-03-25 01:48:00,
2013-03-24 21:53:00,76.5,74.3,29.68,WNW,285,8.0,17.0,93,0.00,,---,0.02,VWS V14.01,2013-03-25 01:53:00,
2013-03-24 21:58:00,76.5,74.3,29.68,NW,308,1.0,17.0,93,0.00,,---,0.02,VWS V14.01,2013-03-25 01:58:00,
2013-03-24 22:00:00,76.5,74.3,29.69,WNW,295,7.0,17.0,93,0.00,,---,0.02,VWS V14.01,2013-03-25 02:00:00,
2013-03-24 22:03:00,76.5,74.3,29.69,WNW,301,7.0,10.0,93,0.00,,---,0.02,VWS V14.01,2013-03-25 02:03:00,
2013-03-24 22:08:00,76.3,74.1,29.69,NW,305,0.0,13.0,93,0.00,,---,0.02,VWS V14.01,2013-03-25 02:08:00,
2013-03-24 22:13:00,76.3,74.1,29.69,WNW,298,7.0,13.0,93,0.00,,---,0.02,VWS V14.01,2013-03-25 02:13:00,
2013-03-24 22:18:00,76.1,74.2,29.69,NW,306,7.0,15.0,94,0.00,,---,0.02,VWS V14.01,2013-03-25 02:18:00,
2013-03-24 22:23:00,76.1,74.2,29.69,WNW,296,0.0,15.0,94,0.00,,---,0.02,VWS V14.01,2013-03-25 02:23:00,
2013-03-24 22:28:00,76.1,74.2,29.69,WNW,301,4.0,15.0,94,0.00,,---,0.02,VWS V14.01,2013-03-25 02:28:00,
2013-03-24 22:30:00,76.1,74.2,29.69,WNW,298,4.0,15.0,94,0.00,,---,0.02,VWS V14.01,2013-03-25 02:30:00,
2013-03-24 22:33:00,76.1,74.2,29.69,West,280,7.0,11.0,94,0.00,,---,0.02,VWS V14.01,2013-03-25 02:33:00,
2013-03-24 22:38:00,76.1,74.2,29.69,WNW,285,1.0,11.0,94,0.00,,---,0.02,VWS V14.01,2013-03-25 02:38:00,
2013-03-24 22:43:00,76.1,74.2,29.69,WNW,287,7.0,11.0,94,0.00,,---,0.02,VWS V14.01,2013-03-25 02:43:00,
2013-03-24 22:48:00,76.1,74.2,29.69,WNW,296,4.0,13.0,94,0.00,,---,0.02,VWS V14.01,2013-03-25 02:48:00,
2013-03-24 22:53:00,76.3,74.4,29.69,WNW,292,4.0,18.0,94,0.00,,---,0.02,VWS V14.01,2013-03-25 02:53:00,
2013-03-24 22:58:00,76.3,74.4,29.69,West,281,9.0,18.0,94,0.00,,---,0.02,VWS V14.01,2013-03-25 02:58:00,
2013-03-24 23:00:00,76.3,74.4,29.70,WNW,301,0.0,18.0,94,0.00,,---,0.02,VWS V14.01,2013-03-25 03:00:00,
2013-03-24 23:03:00,76.3,74.4,29.70,WNW,295,0.0,11.0,94,0.00,,---,0.02,VWS V14.01,2013-03-25 03:03:00,
2013-03-24 23:08:00,76.3,74.4,29.70,WNW,291,1.0,15.0,94,0.00,,---,0.02,VWS V14.01,2013-03-25 03:08:00,
2013-03-24 23:13:00,76.3,74.4,29.70,WNW,298,6.0,15.0,94,0.00,,---,0.02,VWS V14.01,2013-03-25 03:13:00,
2013-03-24 23:18:00,76.3,74.4,29.70,NW,313,2.0,15.0,94,0.00,,---,0.02,VWS V14.01,2013-03-25 03:18:00,
2013-03-24 23:23:00,76.3,74.4,29.70,WNW,288,4.0,17.0,94,0.00,,---,0.02,VWS V14.01,2013-03-25 03:23:00,
2013-03-24 23:28:00,76.3,74.4,29.70,WNW,288,6.0,17.0,94,0.00,,---,0.02,VWS V14.01,2013-03-25 03:28:00,
2013-03-24 23:30:00,76.3,74.4,29.70,West,280,10.0,17.0,94,0.00,,---,0.02,VWS V14.01,2013-03-25 03:30:00,
2013-03-24 23:33:00,76.3,74.4,29.70,WNW,291,7.0,15.0,94,0.00,,---,0.02,VWS V14.01,2013-03-25 03:33:00,
2013-03-24 23:38:00,76.3,74.4,29.70,WNW,294,1.0,15.0,94,0.00,,---,0.02,VWS V14.01,2013-03-25 03:38:00,
2013-03-24 23:43:00,76.5,74.7,29.70,WNW,302,7.0,15.0,94,0.00,,---,0.02,VWS V14.01,2013-03-25 03:43:00,
2013-03-24 23:48:00,76.5,74.7,29.69,WNW,298,4.0,15.0,94,0.00,,---,0.02,VWS V14.01,2013-03-25 03:48:00,
2013-03-24 23:53:00,76.5,74.7,29.69,WNW,285,4.0,15.0,94,0.00,,---,0.02,VWS V14.01,2013-03-25 03:53:00,
2013-03-24 23:58:00,76.5,74.7,29.69,WNW,296,0.0,15.0,94,0.00,,---,0.02,VWS V14.01,2013-03-25 03:58:00,